createdAt,value
2023-02-27T06:39:50.830Z,609.00
2023-02-27T06:40:50.820Z,628.00
2023-02-27T06:41:50.856Z,643.00
2023-02-27T06:42:50.801Z,662.00
2023-02-27T06:43:50.797Z,696.00
2023-02-27T06:44:50.791Z,753.00
2023-02-27T06:45:50.792Z,791.00
2023-02-27T06:46:50.740Z,858.00
2023-02-27T06:47:50.734Z,912.00
2023-02-27T06:48:50.744Z,985.00
2023-02-27T06:49:50.706Z,1007.00
2023-02-27T06:50:50.686Z,1028.00
2023-02-27T06:51:50.670Z,1028.00
2023-02-27T06:52:50.655Z,1057.00
2023-02-27T06:53:50.617Z,1116.00
2023-02-27T06:54:50.604Z,1177.00
2023-02-27T06:55:50.586Z,1212.00
2023-02-27T06:56:50.582Z,1249.00
2023-02-27T06:57:50.562Z,1291.00
2023-02-27T06:58:50.542Z,1315.00
2023-02-27T06:59:50.511Z,1361.00
2023-02-27T07:00:50.492Z,1404.00
2023-02-27T07:01:50.474Z,1457.00
2023-02-27T07:02:50.451Z,1492.00
2023-02-27T07:03:50.456Z,1521.00
2023-02-27T07:04:50.449Z,1559.00
2023-02-27T07:05:50.394Z,1579.00
2023-02-27T07:07:34.985Z,1610.00
2023-02-27T07:07:51.351Z,1611.00
2023-02-27T07:09:00.902Z,1613.00
2023-02-27T07:09:51.312Z,1615.00
2023-02-27T07:10:50.424Z,1616.00
2023-02-27T07:11:50.269Z,1638.00
2023-02-27T07:12:50.273Z,1680.00
2023-02-27T07:13:50.227Z,1742.00
2023-02-27T07:14:50.211Z,1833.00
2023-02-27T07:15:50.186Z,1885.00
2023-02-27T07:16:50.162Z,1886.00
2023-02-27T07:17:50.138Z,1887.00
2023-02-27T07:18:50.110Z,1904.00
2023-02-27T07:19:50.095Z,1922.00
2023-02-27T07:20:50.064Z,1936.00
2023-02-27T07:21:50.040Z,1950.00
2023-02-27T07:22:50.031Z,1964.00
2023-02-27T07:23:49.970Z,1975.00
2023-02-27T07:24:49.936Z,2005.00
2023-02-27T07:25:49.905Z,2087.00
2023-02-27T07:26:49.884Z,2113.00
2023-02-27T07:27:49.885Z,2133.00
2023-02-27T07:28:49.844Z,2123.00
2023-02-27T07:29:49.815Z,2106.00
2023-02-27T07:30:49.799Z,2108.00
2023-02-27T07:31:49.759Z,2107.00
2023-02-27T07:32:49.788Z,2104.00
2023-02-27T07:34:49.683Z,2052.00
2023-02-27T07:35:49.741Z,2001.00
2023-02-27T07:36:49.618Z,1985.00
2023-02-27T07:37:49.586Z,1958.00
2023-02-27T07:38:49.586Z,1897.00
2023-02-27T07:39:49.516Z,1890.00
2023-02-27T07:40:49.496Z,1857.00
2023-02-27T07:41:49.463Z,1818.00
2023-02-27T07:42:50.691Z,1754.00
2023-02-27T07:43:49.638Z,1760.00
2023-02-27T07:44:49.616Z,1724.00
2023-02-27T07:45:49.576Z,1687.00
2023-02-27T07:46:49.618Z,1633.00
2023-02-27T07:47:49.517Z,1639.00
2023-02-27T07:48:49.477Z,1573.00
2023-02-27T07:49:49.491Z,1485.00
2023-02-27T07:50:49.410Z,1531.00
2023-02-27T07:51:49.370Z,1513.00
2023-02-27T07:52:49.337Z,1589.00
2023-02-27T07:53:49.313Z,1637.00
2023-02-27T07:54:49.289Z,1509.00
2023-02-27T07:55:49.318Z,1488.00
2023-02-27T07:56:49.240Z,1528.00
2023-02-27T07:57:49.214Z,1539.00
2023-02-27T07:58:49.251Z,1639.00
2023-02-27T07:59:49.079Z,1598.00
2023-02-27T08:00:49.084Z,1517.00
2023-02-27T08:01:49.011Z,1543.00
2023-02-27T08:02:49.168Z,1562.00
2023-02-27T08:03:48.936Z,1595.00
2023-02-27T08:04:48.926Z,1723.00
2023-02-27T08:05:48.846Z,1687.00
2023-02-27T08:06:48.827Z,1589.00
2023-02-27T08:07:48.793Z,1631.00
2023-02-27T08:08:48.729Z,1626.00
2023-02-27T08:09:48.685Z,1630.00
2023-02-27T08:10:48.656Z,1652.00
2023-02-27T08:11:49.320Z,1662.00
2023-02-27T08:12:48.577Z,1663.00
2023-02-27T08:13:59.952Z,1702.00
2023-02-27T08:15:48.474Z,1654.00
2023-02-27T08:16:48.426Z,1707.00
2023-02-27T08:17:48.380Z,1741.00
2023-02-27T08:18:48.346Z,1776.00
2023-02-27T08:19:48.313Z,1777.00
2023-02-27T08:20:48.258Z,1825.00
2023-02-27T08:21:48.229Z,1883.00
2023-02-27T08:22:48.192Z,1878.00
2023-02-27T08:23:48.139Z,1830.00
2023-02-27T08:24:48.114Z,1760.00
2023-02-27T08:25:48.063Z,1762.00
2023-02-27T08:26:48.053Z,1780.00
2023-02-27T08:27:47.994Z,1869.00
2023-02-27T08:28:47.961Z,1843.00
2023-02-27T08:29:47.926Z,1793.00
2023-02-27T08:31:47.957Z,1722.00
2023-02-27T08:32:47.817Z,1746.00
2023-02-27T08:33:49.598Z,1855.00
2023-02-27T08:35:47.724Z,1786.00
2023-02-27T08:36:47.686Z,1730.00
2023-02-27T08:37:47.610Z,1731.00
2023-02-27T08:38:47.565Z,1611.00
2023-02-27T08:39:47.528Z,1533.00
2023-02-27T08:40:47.494Z,1380.00
2023-02-27T08:41:47.443Z,899.00
2023-02-27T08:42:47.563Z,540.00
2023-02-27T08:43:47.405Z,412.00
2023-02-27T08:44:47.387Z,400.00
2023-02-27T08:45:47.536Z,400.00
2023-02-27T08:46:47.477Z,400.00
2023-02-27T08:47:47.502Z,400.00
2023-02-27T08:48:47.451Z,400.00
2023-02-27T08:49:47.578Z,400.00
2023-02-27T08:50:47.444Z,400.00
2023-02-27T08:51:47.565Z,400.00
2023-02-27T08:52:47.636Z,400.00
2023-02-27T08:53:47.614Z,400.00
2023-02-27T09:46:48.527Z,3192.00
2023-02-27T09:47:48.516Z,3189.00
2023-02-27T09:48:48.481Z,3182.00
2023-02-27T09:49:48.512Z,3198.00
2023-02-27T09:50:48.467Z,3194.00
2023-02-27T09:51:48.427Z,3195.00
2023-02-27T09:52:48.449Z,3201.00
2023-02-27T09:53:48.415Z,3215.00
2023-02-27T09:54:48.366Z,3240.00
2023-02-27T09:55:48.355Z,3297.00
2023-02-27T09:56:48.320Z,3309.00
2023-02-27T09:57:48.305Z,3318.00
2023-02-27T09:58:48.289Z,3356.00
2023-02-27T09:59:48.273Z,3364.00
2023-02-27T10:00:48.275Z,3370.00
2023-02-27T10:01:48.237Z,3375.00
2023-02-27T10:02:48.196Z,3367.00
2023-02-27T10:03:48.182Z,3360.00
2023-02-27T10:04:48.162Z,3359.00
2023-02-27T10:05:48.262Z,3342.00
2023-02-27T10:06:48.133Z,3355.00
2023-02-27T10:07:48.111Z,3345.00
2023-02-27T10:08:48.078Z,3338.00
2023-02-27T10:09:48.069Z,3350.00
2023-02-27T10:10:48.042Z,3351.00
2023-02-27T10:11:48.022Z,3350.00
2023-02-27T10:12:47.991Z,3336.00
2023-02-27T10:13:47.998Z,3352.00
2023-02-27T10:14:47.966Z,3361.00
2023-02-27T10:15:47.939Z,3335.00
2023-02-27T10:16:47.951Z,3326.00
2023-02-27T10:17:47.916Z,3331.00
2023-02-27T10:18:47.881Z,3356.00
2023-02-27T10:19:47.836Z,3366.00
2023-02-27T10:20:47.816Z,3384.00
2023-02-27T10:21:47.807Z,3385.00
2023-02-27T10:22:47.754Z,3385.00
2023-02-27T10:23:47.741Z,3393.00
2023-02-27T10:24:47.711Z,3372.00
2023-02-27T10:25:47.688Z,3381.00
2023-02-27T10:26:47.670Z,3409.00
2023-02-27T10:27:47.639Z,3401.00
2023-02-27T10:28:47.636Z,3398.00
2023-02-27T10:29:47.596Z,3401.00
2023-02-27T10:30:47.623Z,3404.00
2023-02-27T10:31:47.582Z,3395.00
2023-02-27T10:32:47.515Z,3409.00
2023-02-27T10:33:47.501Z,3402.00
2023-02-27T10:34:47.478Z,3386.00
2023-02-27T10:35:47.469Z,3383.00
2023-02-27T10:36:47.440Z,3387.00
2023-02-27T10:37:47.386Z,3391.00
2023-02-27T10:38:47.357Z,3391.00
2023-02-27T10:39:47.322Z,3387.00
2023-02-27T10:40:47.290Z,3366.00
2023-02-27T10:41:47.274Z,3358.00
2023-02-27T10:42:47.237Z,3369.00
2023-02-27T10:43:47.250Z,3352.00
2023-02-27T10:44:47.179Z,3361.00
2023-02-27T10:45:47.156Z,3328.00
2023-02-27T10:46:47.124Z,3328.00
2023-02-27T10:47:47.069Z,3294.00
2023-02-27T10:48:47.037Z,3292.00
2023-02-27T10:49:47.042Z,3313.00
2023-02-27T10:50:46.977Z,3325.00
2023-02-27T10:51:46.964Z,3362.00
2023-02-27T10:52:46.910Z,3418.00
2023-02-27T10:53:46.861Z,3472.00
2023-02-27T10:54:46.809Z,3523.00
2023-02-27T10:55:46.778Z,3572.00
2023-02-27T10:56:46.748Z,3610.00
2023-02-27T10:57:46.698Z,3632.00
2023-02-27T10:58:46.647Z,3670.00
2023-02-27T10:59:46.605Z,3745.00
2023-02-27T11:00:46.598Z,3776.00
2023-02-27T11:01:46.560Z,3645.00
2023-02-27T11:02:46.547Z,3421.00
2023-02-27T11:03:46.465Z,3439.00
2023-02-27T11:04:46.486Z,3524.00
2023-02-27T11:05:46.405Z,3499.00
2023-02-27T11:06:46.466Z,3409.00
2023-02-27T11:07:46.336Z,3449.00
2023-02-27T11:08:46.405Z,3469.00
2023-02-27T11:09:46.262Z,3461.00
2023-02-27T11:10:46.240Z,3488.00
2023-02-27T11:11:46.235Z,3444.00
2023-02-27T11:12:46.222Z,3485.00
2023-02-27T11:13:46.103Z,3547.00
2023-02-27T11:14:46.051Z,3577.00
2023-02-27T11:15:46.021Z,3614.00
2023-02-27T11:16:45.948Z,3670.00
2023-02-27T11:17:45.904Z,3632.00
2023-02-27T11:18:45.871Z,3677.00
2023-02-27T11:19:45.825Z,3684.00
2023-02-27T11:20:45.845Z,3703.00
2023-02-27T11:21:45.758Z,3717.00
2023-02-27T11:57:45.919Z,3499.00
2023-02-27T13:20:40.619Z,2960.00
2023-02-27T13:21:40.570Z,2973.00
2023-02-27T13:22:40.556Z,2969.00
2023-02-27T13:23:40.507Z,2994.00
2023-02-27T13:24:40.461Z,2995.00
2023-02-27T13:25:40.444Z,2997.00
2023-02-27T13:26:40.388Z,3003.00
2023-02-27T13:27:40.351Z,3009.00
2023-02-27T13:28:40.338Z,3024.00
2023-02-27T13:29:40.292Z,3041.00
2023-02-27T13:30:40.241Z,3038.00
2023-02-27T13:31:40.319Z,3038.00
2023-02-27T13:32:44.084Z,3038.00
2023-02-27T13:33:40.115Z,3038.00
2023-02-27T13:34:40.083Z,3040.00
2023-02-27T13:35:40.088Z,3038.00
2023-02-27T13:36:40.021Z,3012.00
2023-02-27T13:37:39.979Z,3001.00
2023-02-27T13:38:39.937Z,3033.00
2023-02-27T13:39:39.902Z,3016.00
2023-02-27T13:40:39.869Z,3010.00
2023-02-27T13:41:39.847Z,3016.00
2023-02-27T13:42:39.784Z,2998.00
2023-02-27T13:43:51.441Z,2973.00
2023-02-27T13:45:39.704Z,2974.00
2023-02-27T13:46:39.752Z,2977.00
2023-02-27T13:47:39.618Z,2986.00
2023-02-27T13:48:39.579Z,2995.00
2023-02-27T13:49:39.518Z,2971.00
2023-02-27T13:50:39.488Z,3003.00
2023-02-27T13:51:39.439Z,3003.00
2023-02-27T13:52:39.409Z,2996.00
2023-02-27T13:53:39.371Z,2994.00
2023-02-27T13:54:39.348Z,2981.00
2023-02-27T13:55:39.294Z,2973.00
2023-02-27T13:56:39.251Z,2995.00
2023-02-27T13:57:39.215Z,3025.00
2023-02-27T13:58:39.178Z,2989.00
2023-02-27T13:59:39.144Z,2996.00
2023-02-27T14:00:39.091Z,3014.00
2023-02-27T14:01:39.150Z,3000.00
2023-02-27T14:02:46.560Z,2994.00
2023-02-27T14:03:39.982Z,2994.00
2023-02-27T14:04:38.947Z,2985.00
2023-02-27T14:05:38.905Z,3000.00
2023-02-27T14:06:38.881Z,2992.00
2023-02-27T14:07:38.848Z,2977.00
2023-02-27T14:08:38.804Z,2956.00
2023-02-27T14:09:38.767Z,2988.00
2023-02-27T14:10:38.721Z,2971.00
2023-02-27T14:11:38.689Z,2965.00
2023-02-27T14:12:45.348Z,2993.00
2023-02-27T14:13:39.646Z,2994.00
2023-02-27T14:14:38.609Z,2993.00
2023-02-27T14:15:38.568Z,2998.00
2023-02-27T14:16:38.556Z,2995.00
2023-02-27T14:17:38.503Z,2999.00
2023-02-27T14:18:38.478Z,3004.00
2023-02-27T14:19:38.441Z,3007.00
2023-02-27T14:20:38.412Z,3011.00
2023-02-27T14:21:38.398Z,3003.00
2023-02-27T14:22:38.359Z,2994.00
2023-02-27T14:23:38.327Z,2990.00
2023-02-27T14:24:38.307Z,2971.00
2023-02-27T14:25:38.242Z,2968.00
2023-02-27T14:26:38.238Z,2991.00
2023-02-27T14:27:38.173Z,2977.00
2023-02-27T14:28:38.144Z,2981.00
2023-02-27T14:29:38.112Z,2963.00
2023-02-27T14:30:38.077Z,2981.00
2023-02-27T14:31:38.127Z,2979.00
2023-02-27T14:32:38.021Z,2969.00
2023-02-27T14:33:40.754Z,2966.00
2023-02-27T14:34:37.941Z,2979.00
2023-02-27T14:35:37.980Z,2990.00
2023-02-27T14:36:37.888Z,2998.00
2023-02-27T14:37:37.860Z,2974.00
2023-02-27T14:38:37.821Z,2972.00
2023-02-27T14:39:37.780Z,2967.00
2023-02-27T14:40:37.760Z,2967.00
2023-02-27T14:41:37.721Z,2981.00
2023-02-27T14:42:37.737Z,2973.00
2023-02-27T14:43:37.648Z,2961.00
2023-02-27T14:44:37.625Z,2962.00
2023-02-27T14:45:37.613Z,2961.00
2023-02-27T14:46:37.689Z,2946.00
2023-02-27T14:47:37.546Z,2962.00
2023-02-27T14:48:37.517Z,2965.00
2023-02-27T14:49:37.483Z,2968.00
2023-02-27T14:50:37.462Z,2960.00
2023-02-27T14:51:37.428Z,2931.00
2023-02-27T14:52:37.386Z,2946.00
2023-02-27T14:53:37.384Z,2960.00
2023-02-27T14:54:37.320Z,2946.00
2023-02-27T14:55:37.296Z,2965.00
2023-02-27T14:56:37.261Z,2954.00
2023-02-27T14:57:37.236Z,2935.00
2023-02-27T14:58:37.193Z,2943.00
2023-02-27T14:59:37.161Z,2934.00
2023-02-27T15:00:37.131Z,2958.00
2023-02-27T15:01:37.180Z,2947.00
2023-02-27T15:02:37.063Z,2943.00
2023-02-27T15:03:37.057Z,2901.00
2023-02-27T15:04:37.023Z,2919.00
2023-02-27T15:05:36.954Z,2922.00
2023-02-27T15:06:36.903Z,2898.00
2023-02-27T15:07:36.878Z,2914.00
2023-02-27T15:08:36.852Z,2916.00
2023-02-27T15:09:36.804Z,2917.00
2023-02-27T15:10:36.773Z,2919.00
2023-02-27T15:11:36.740Z,2916.00
2023-02-27T15:12:36.740Z,2937.00
2023-02-27T15:13:36.687Z,2894.00
2023-02-27T15:14:36.782Z,2871.00
2023-02-27T15:15:36.642Z,2904.00
2023-02-27T15:16:36.836Z,2900.00
2023-02-27T15:17:36.551Z,2912.00
2023-02-27T15:18:36.511Z,2899.00
2023-02-27T15:19:36.482Z,2896.00
2023-02-27T15:20:36.446Z,2908.00
2023-02-27T15:21:36.414Z,2893.00
2023-02-27T15:22:39.371Z,2920.00
2023-02-27T15:23:36.356Z,2937.00
2023-02-27T15:24:49.251Z,2934.00
2023-02-27T15:25:37.312Z,2935.00
2023-02-27T15:26:36.255Z,2937.00
2023-02-27T15:27:36.223Z,2941.00
2023-02-27T15:28:36.203Z,2926.00
2023-02-27T15:29:36.229Z,2911.00
2023-02-27T15:30:36.152Z,2929.00
2023-02-27T15:31:36.168Z,2919.00
2023-02-27T15:32:36.090Z,2900.00
2023-02-27T15:33:36.050Z,2899.00
2023-02-27T15:34:36.033Z,2893.00
2023-02-27T15:35:36.025Z,2909.00
2023-02-27T15:36:35.947Z,2897.00
2023-02-27T15:37:35.944Z,2926.00
2023-02-27T15:38:35.871Z,2911.00
2023-02-27T15:39:35.840Z,2902.00
2023-02-27T15:40:35.795Z,2918.00
2023-02-27T15:41:35.762Z,2911.00
2023-02-27T15:42:35.731Z,2933.00
2023-02-27T16:30:34.256Z,2838.00
2023-02-27T16:31:34.301Z,2845.00
2023-02-27T19:22:30.080Z,2553.00
2023-02-27T21:52:27.097Z,2299.00
2023-02-27T22:22:26.671Z,2258.00
2023-02-27T22:23:26.650Z,2253.00
2023-02-27T22:24:26.626Z,2255.00
2023-02-27T22:25:26.610Z,2243.00
2023-02-27T22:26:26.606Z,2236.00
2023-02-27T22:27:26.561Z,2242.00
2023-02-27T22:28:26.541Z,2237.00
2023-02-27T22:29:26.538Z,2253.00
2023-02-27T22:30:26.510Z,2241.00
2023-02-27T22:31:26.677Z,2229.00
2023-02-27T22:32:26.515Z,2229.00
2023-02-27T22:33:26.459Z,2231.00
2023-02-27T22:34:26.436Z,2241.00
2023-02-27T22:35:26.450Z,2245.00
2023-02-27T22:36:26.408Z,2257.00
2023-02-27T22:37:26.390Z,2229.00
2023-02-27T22:38:26.432Z,2239.00
2023-02-27T22:39:26.364Z,2225.00
2023-02-27T22:40:26.353Z,2228.00
2023-02-27T22:41:26.557Z,2233.00
2023-02-27T22:42:26.312Z,2200.00
2023-02-27T22:43:26.290Z,2230.00
2023-02-27T22:44:26.272Z,2242.00
2023-02-27T22:45:26.270Z,2223.00
2023-02-27T22:46:26.257Z,2203.00
2023-02-27T22:47:26.211Z,2228.00
2023-02-27T22:48:26.197Z,2238.00
2023-02-27T22:49:26.174Z,2222.00
2023-02-27T22:50:26.163Z,2232.00
2023-02-27T22:51:26.384Z,2226.00
2023-02-27T22:52:26.128Z,2223.00
2023-02-27T22:53:26.108Z,2209.00
2023-02-27T22:54:26.091Z,2194.00
2023-02-27T22:55:26.070Z,2203.00
2023-02-27T22:56:26.079Z,2211.00
2023-02-27T22:57:26.026Z,2204.00
2023-02-27T22:58:26.009Z,2203.00
2023-02-27T22:59:25.987Z,2193.00
2023-02-27T23:00:25.970Z,2200.00
2023-02-27T23:01:26.092Z,2203.00
2023-02-27T23:02:25.920Z,2196.00
2023-02-27T23:03:25.910Z,2201.00
2023-02-27T23:04:25.879Z,2216.00
2023-02-27T23:05:25.857Z,2208.00
2023-02-27T23:06:25.848Z,2198.00
2023-02-27T23:07:25.828Z,2179.00
2023-02-27T23:08:25.815Z,2190.00
2023-02-27T23:09:25.787Z,2186.00
2023-02-27T23:10:25.782Z,2198.00
2023-02-27T23:11:25.781Z,2193.00
2023-02-27T23:12:27.427Z,2182.00
2023-02-27T23:13:25.741Z,2194.00
2023-02-27T23:14:25.719Z,2196.00
